Weather at Kreševo Airstrip

Public forecast

Using degrees Celsius for public forecast. Weather courtesy of forecast.io.

Closest aviation weather report (METAR) to Kreševo Airstrip

Closest report is Sarajevo International Airport, 12.0 nm (22.1 km) ESE.

2024/05/24 06:30 (retrieved 30 minutes ago)

LQSA 240630Z VRB02KT 9999 FEW045 15/12 Q1020 NOSIG

Closest aviation forecast (TAF) to Kreševo Airstrip

Closest forecast is Sarajevo International Airport, 12.0 nm (22.1 km) ESE.

2024/05/24 06:06 (retrieved 54 minutes ago)

TAF LQSA 240500Z 2406/2506 VRB02KT CAVOK TX25/2412Z TN10/2504Z PROB40 TEMPO 2410/2417 30012KT TSRA FEW035CB SCT050 PROB30 2503/2506 2500 BR BKN008